createdAt,value
2019-02-07T00:01:02.913Z,84.40
2019-02-07T00:03:32.049Z,84.20
2019-02-07T00:06:01.642Z,84.70
2019-02-07T00:08:30.781Z,84.60
2019-02-07T00:10:59.881Z,84.30
2019-02-07T00:13:29.009Z,83.80
2019-02-07T00:15:58.157Z,83.20
2019-02-07T00:18:27.289Z,82.40
2019-02-07T00:20:56.780Z,84.70
2019-02-07T00:23:25.913Z,85.70
2019-02-07T00:25:55.024Z,85.90
2019-02-07T00:28:24.558Z,86.10
2019-02-07T00:30:53.823Z,85.90
2019-02-07T00:33:23.493Z,85.60
2019-02-07T00:35:54.479Z,84.80
2019-02-07T00:38:36.717Z,84.50
2019-02-07T00:41:06.263Z,86.00
2019-02-07T00:43:37.780Z,86.10
2019-02-07T00:46:07.751Z,84.90
2019-02-07T00:48:37.522Z,86.00
2019-02-07T00:51:08.219Z,89.00
2019-02-07T00:53:37.562Z,90.30
2019-02-07T00:56:07.119Z,90.60
2019-02-07T00:58:36.896Z,90.00
2019-02-07T01:01:07.318Z,88.20
2019-02-07T01:03:49.730Z,87.80
2019-02-07T01:06:19.381Z,87.90
2019-02-07T01:08:48.644Z,87.80
2019-02-07T01:11:17.974Z,87.00
2019-02-07T01:13:47.558Z,88.00
2019-02-07T01:16:17.295Z,87.30
2019-02-07T01:18:46.563Z,88.40
2019-02-07T01:21:15.770Z,88.60
2019-02-07T01:23:45.114Z,89.20
2019-02-07T01:26:14.300Z,89.20
2019-02-07T01:28:43.720Z,88.80
2019-02-07T01:31:12.913Z,89.00
2019-02-07T01:33:42.025Z,89.50
2019-02-07T01:36:11.157Z,89.60
2019-02-07T01:38:40.273Z,90.00
2019-02-07T01:41:09.400Z,89.60
2019-02-07T01:43:38.789Z,86.80
2019-02-07T01:46:07.922Z,85.60
2019-02-07T01:48:37.037Z,84.30
2019-02-07T01:51:06.172Z,82.70
2019-02-07T01:53:35.293Z,82.60
2019-02-07T01:56:04.433Z,82.50
2019-02-07T01:58:34.033Z,81.50
2019-02-07T02:01:03.171Z,81.50
2019-02-07T02:03:32.289Z,81.50
2019-02-07T02:06:01.425Z,81.30
2019-02-07T02:08:30.568Z,81.10
2019-02-07T02:10:59.704Z,80.40
2019-02-07T02:13:29.294Z,79.20
2019-02-07T02:15:58.433Z,79.10
2019-02-07T02:20:56.353Z,81.60
2019-02-07T02:23:25.505Z,81.70
2019-02-07T02:25:54.725Z,81.80
2019-02-07T02:28:23.828Z,81.80
2019-02-07T02:30:52.949Z,81.70
2019-02-07T02:33:22.089Z,81.40
2019-02-07T02:35:53.990Z,81.50
2019-02-07T02:38:35.086Z,82.40
2019-02-07T02:41:04.597Z,82.50
2019-02-07T02:43:33.729Z,82.90
2019-02-07T02:46:02.853Z,82.90
2019-02-07T02:48:31.976Z,83.40
2019-02-07T02:51:01.119Z,83.20
2019-02-07T02:53:30.309Z,82.80
2019-02-07T02:55:59.429Z,82.30
2019-02-07T02:58:28.556Z,81.70
2019-02-07T03:00:59.321Z,81.00
2019-02-07T03:03:35.794Z,81.30
2019-02-07T03:06:06.549Z,81.90
2019-02-07T03:08:49.032Z,82.90
2019-02-07T03:11:29.902Z,83.50
2019-02-07T03:17:05.003Z,82.90
2019-02-07T03:19:35.769Z,82.20
2019-02-07T03:22:18.711Z,81.70
2019-02-07T03:25:07.293Z,82.30
2019-02-07T03:27:41.201Z,82.60
2019-02-07T03:30:13.607Z,83.20
2019-02-07T03:32:44.373Z,82.90
2019-02-07T03:42:58.402Z,82.90
2019-02-07T03:45:35.477Z,82.60
2019-02-07T03:48:18.176Z,82.30
2019-02-07T03:50:48.934Z,81.20
2019-02-07T03:53:31.713Z,80.60
2019-02-07T03:56:11.717Z,79.90
2019-02-07T03:58:54.275Z,79.70
2019-02-07T04:01:24.333Z,79.40
2019-02-07T04:03:55.022Z,80.00
2019-02-07T04:06:32.005Z,80.90
2019-02-07T04:09:08.976Z,80.50
2019-02-07T04:11:51.673Z,80.10
2019-02-07T04:14:22.452Z,80.10
2019-02-07T04:16:53.219Z,80.90
2019-02-07T04:19:42.035Z,81.80
2019-02-07T04:22:21.951Z,82.50
2019-02-07T04:24:55.395Z,83.10
2019-02-07T04:27:42.436Z,83.50
2019-02-07T04:30:25.594Z,83.30
2019-02-07T04:33:02.209Z,81.30
2019-02-07T04:35:49.468Z,79.80
2019-02-07T04:38:20.295Z,80.50
2019-02-07T04:41:09.394Z,79.90
2019-02-07T04:43:43.072Z,79.90
2019-02-07T04:46:26.756Z,79.90
2019-02-07T04:49:04.335Z,79.50
2019-02-07T04:51:35.104Z,78.70
2019-02-07T04:54:18.149Z,79.30
2019-02-07T04:56:51.962Z,81.10
2019-02-07T04:59:28.725Z,82.30
2019-02-07T05:05:00.644Z,80.40
2019-02-07T05:07:47.610Z,79.10
2019-02-07T05:10:35.269Z,79.10
2019-02-07T05:13:22.394Z,79.10
2019-02-07T05:16:09.458Z,79.70
2019-02-07T05:18:49.040Z,80.20
2019-02-07T05:21:37.791Z,80.30
2019-02-07T05:24:24.168Z,80.00
2019-02-07T05:27:07.189Z,80.50
2019-02-07T05:29:54.195Z,80.00
2019-02-07T05:32:39.941Z,79.80
2019-02-07T05:35:12.740Z,79.80
2019-02-07T05:37:49.813Z,80.70
2019-02-07T05:40:20.661Z,81.00
2019-02-07T05:43:07.952Z,81.20
2019-02-07T05:45:55.369Z,81.10
2019-02-07T05:48:29.120Z,81.50
2019-02-07T05:51:17.883Z,82.40
2019-02-07T05:56:35.033Z,81.50
2019-02-07T05:59:05.799Z,81.20
2019-02-07T06:01:54.654Z,80.90
2019-02-07T06:04:40.654Z,80.80
2019-02-07T06:07:14.923Z,80.60
2019-02-07T06:09:49.083Z,80.90
2019-02-07T06:12:27.020Z,81.00
2019-02-07T06:15:07.013Z,81.00
2019-02-07T06:17:40.781Z,81.60
2019-02-07T06:20:11.844Z,82.00
2019-02-07T06:22:43.368Z,82.50
2019-02-07T06:25:23.363Z,82.90
2019-02-07T06:28:00.102Z,82.30
2019-02-07T06:30:36.605Z,81.80
2019-02-07T06:33:22.768Z,82.50
2019-02-07T06:35:53.929Z,83.00
2019-02-07T06:38:43.045Z,83.30
2019-02-07T06:41:17.121Z,83.30
2019-02-07T06:43:54.282Z,83.60
2019-02-07T06:46:28.009Z,84.50
2019-02-07T06:49:07.941Z,84.80
2019-02-07T06:51:57.081Z,85.10
2019-02-07T06:54:39.622Z,84.40
2019-02-07T06:57:17.150Z,85.10
2019-02-07T07:00:02.895Z,85.60
2019-02-07T07:02:48.684Z,85.50
2019-02-07T07:05:25.684Z,85.80
2019-02-07T07:08:12.896Z,85.90
2019-02-07T07:10:59.806Z,87.00
2019-02-07T07:13:30.646Z,87.10
2019-02-07T07:16:04.812Z,86.30
2019-02-07T07:18:35.672Z,85.70
2019-02-07T07:21:15.913Z,86.20
2019-02-07T07:23:55.899Z,86.30
2019-02-07T07:26:38.684Z,86.40
2019-02-07T07:29:12.624Z,86.20
2019-02-07T07:31:59.612Z,86.00
2019-02-07T07:34:48.850Z,85.50
2019-02-07T07:37:27.284Z,85.40
2019-02-07T07:39:58.070Z,84.60
2019-02-07T07:43:00.255Z,84.30
2019-02-07T07:45:40.392Z,84.90
2019-02-07T07:48:36.433Z,85.10
2019-02-07T07:51:22.766Z,86.00
2019-02-07T07:54:05.994Z,86.20
2019-02-07T07:56:51.812Z,87.50
2019-02-07T07:59:38.902Z,87.80
2019-02-07T08:02:22.608Z,88.10
2019-02-07T08:04:59.404Z,88.90
2019-02-07T08:07:32.853Z,89.30
2019-02-07T08:10:19.785Z,89.10
2019-02-07T08:13:07.305Z,88.20
2019-02-07T08:15:47.057Z,87.90
2019-02-07T08:18:34.209Z,88.10
2019-02-07T08:21:21.146Z,88.20
2019-02-07T08:24:10.054Z,87.80
2019-02-07T08:26:57.313Z,87.70
2019-02-07T08:29:34.523Z,87.50
2019-02-07T08:32:17.068Z,87.70
2019-02-07T08:34:50.552Z,87.20
2019-02-07T08:37:21.321Z,86.60
2019-02-07T08:39:52.092Z,85.90
2019-02-07T08:42:25.604Z,86.10
2019-02-07T08:44:59.900Z,85.60
2019-02-07T08:47:43.312Z,85.30
2019-02-07T08:50:30.731Z,86.20
2019-02-07T08:56:18.390Z,86.00
2019-02-07T08:58:52.129Z,85.70
2019-02-07T09:01:38.421Z,85.60
2019-02-07T09:04:15.505Z,85.90
2019-02-07T09:06:52.357Z,85.40
2019-02-07T09:09:25.797Z,85.40
2019-02-07T09:12:12.829Z,85.10
2019-02-07T09:14:50.325Z,83.90
2019-02-07T09:17:21.128Z,83.80
2019-02-07T09:19:54.833Z,83.50
2019-02-07T09:22:41.792Z,83.50
2019-02-07T09:25:33.899Z,83.80
2019-02-07T09:28:01.659Z,83.20
2019-02-07T09:30:41.567Z,82.90
2019-02-07T09:33:21.295Z,82.60
2019-02-07T09:36:10.149Z,82.50
2019-02-07T09:38:44.306Z,82.50
2019-02-07T09:41:31.803Z,82.10
2019-02-07T09:44:05.280Z,80.90
2019-02-07T09:46:52.465Z,80.90
2019-02-07T09:49:23.221Z,80.00
2019-02-07T09:51:54.057Z,80.60
2019-02-07T09:54:36.871Z,77.60
2019-02-07T09:57:07.632Z,79.50
2019-02-07T09:59:47.469Z,80.00
2019-02-07T10:02:18.232Z,79.20
2019-02-07T10:04:52.250Z,77.60
2019-02-07T10:07:37.949Z,78.70
2019-02-07T10:10:28.422Z,77.90
2019-02-07T10:13:15.383Z,77.30
2019-02-07T10:15:52.898Z,76.10
2019-02-07T10:18:32.829Z,74.00
2019-02-07T10:21:05.100Z,73.90
2019-02-07T10:23:51.774Z,74.30
2019-02-07T10:26:25.493Z,74.80
2019-02-07T10:29:12.494Z,75.10
2019-02-07T10:31:49.707Z,74.30
2019-02-07T10:34:20.472Z,72.40
2019-02-07T10:36:56.965Z,72.60
2019-02-07T10:39:44.241Z,69.80
2019-02-07T10:42:31.653Z,67.40
2019-02-07T10:45:08.622Z,62.30
2019-02-07T10:47:51.910Z,60.60
2019-02-07T10:50:38.247Z,59.90
2019-02-07T10:53:21.247Z,57.20
2019-02-07T10:56:10.454Z,55.10
2019-02-07T10:59:00.167Z,54.60
2019-02-07T11:01:35.668Z,53.20
2019-02-07T11:04:09.522Z,52.10
2019-02-07T11:06:52.378Z,51.80
2019-02-07T11:09:50.406Z,51.40
2019-02-07T11:12:21.154Z,52.10
2019-02-07T11:14:51.916Z,51.50
2019-02-07T11:17:34.905Z,52.00
2019-02-07T11:20:32.999Z,52.60
2019-02-07T11:23:20.224Z,53.00
2019-02-07T11:25:50.993Z,53.60
2019-02-07T11:28:21.793Z,53.30
2019-02-07T11:31:04.737Z,53.90
2019-02-07T11:33:38.813Z,53.10
2019-02-07T11:36:21.733Z,52.80
2019-02-07T11:38:53.614Z,52.90
2019-02-07T11:41:27.907Z,52.40
2019-02-07T11:43:59.258Z,52.80
2019-02-07T11:46:37.148Z,52.60
2019-02-07T11:49:06.825Z,52.10
2019-02-07T11:51:40.716Z,52.50
2019-02-07T11:54:14.631Z,52.50
2019-02-07T11:56:54.986Z,53.20
2019-02-07T11:59:37.599Z,53.00
2019-02-07T12:02:17.193Z,53.10
2019-02-07T12:05:00.712Z,52.50
2019-02-07T12:07:49.521Z,52.40
2019-02-07T12:10:22.895Z,53.00
2019-02-07T12:13:08.825Z,52.30
2019-02-07T12:15:48.816Z,51.60
2019-02-07T12:18:21.009Z,51.70
2019-02-07T12:21:08.161Z,52.00
2019-02-07T12:23:39.001Z,52.40
2019-02-07T12:26:17.900Z,51.90
2019-02-07T12:28:55.214Z,51.40
2019-02-07T12:31:27.065Z,50.90
2019-02-07T12:34:04.017Z,50.50
2019-02-07T12:36:34.830Z,50.50
2019-02-07T12:39:11.025Z,49.40
2019-02-07T12:41:47.816Z,49.60
2019-02-07T12:44:18.579Z,49.20
2019-02-07T12:46:51.966Z,49.70
2019-02-07T12:49:29.340Z,50.40
2019-02-07T12:52:01.184Z,51.50
2019-02-07T12:54:37.900Z,52.40
2019-02-07T12:57:08.642Z,52.10
2019-02-07T12:59:39.484Z,52.80
2019-02-07T13:02:10.303Z,52.90
2019-02-07T13:04:49.461Z,54.20
2019-02-07T13:07:19.338Z,56.30
2019-02-07T13:09:59.323Z,57.70
2019-02-07T13:12:32.923Z,58.50
2019-02-07T13:15:12.548Z,60.00
2019-02-07T13:17:46.296Z,61.70
2019-02-07T13:20:31.736Z,63.20
2019-02-07T13:23:11.460Z,64.50
2019-02-07T13:25:42.208Z,66.80
2019-02-07T13:28:28.609Z,68.90
2019-02-07T13:31:05.571Z,70.40
2019-02-07T13:33:42.430Z,72.00
2019-02-07T13:36:16.329Z,73.40
2019-02-07T13:38:47.149Z,74.10
2019-02-07T13:41:17.896Z,75.00
2019-02-07T13:43:51.568Z,75.50
2019-02-07T13:46:31.777Z,76.00
2019-02-07T13:49:02.519Z,77.10
2019-02-07T13:51:51.576Z,77.30
2019-02-07T13:54:31.245Z,78.30
2019-02-07T13:57:01.998Z,79.00
2019-02-07T13:59:35.687Z,79.80
2019-02-07T14:02:09.952Z,80.30
2019-02-07T14:04:43.640Z,80.30
2019-02-07T14:10:41.428Z,81.30
2019-02-07T14:13:22.289Z,81.50
2019-02-07T14:16:05.297Z,81.60
2019-02-07T14:18:44.617Z,81.50
2019-02-07T14:21:25.847Z,82.40
2019-02-07T14:24:05.376Z,83.30
2019-02-07T14:26:44.988Z,82.60
2019-02-07T14:29:28.232Z,83.00
2019-02-07T14:32:15.556Z,83.70
2019-02-07T14:35:02.369Z,85.20
2019-02-07T14:37:38.864Z,85.50
2019-02-07T14:40:28.745Z,86.60
2019-02-07T14:43:11.863Z,87.80
2019-02-07T14:45:45.751Z,89.90
2019-02-07T14:48:22.377Z,89.60
2019-02-07T14:50:51.812Z,90.80
2019-02-07T14:53:20.927Z,90.80
2019-02-07T14:55:50.036Z,91.10
2019-02-07T14:58:19.150Z,91.10
2019-02-07T15:00:48.261Z,91.40
2019-02-07T15:03:17.376Z,92.20
2019-02-07T15:05:46.976Z,92.00
2019-02-07T15:08:16.101Z,92.00
2019-02-07T15:10:45.191Z,92.00
2019-02-07T15:13:14.301Z,92.10
2019-02-07T15:15:43.409Z,92.30
2019-02-07T15:18:12.530Z,92.80
2019-02-07T15:20:42.116Z,92.90
2019-02-07T15:23:11.231Z,93.20
2019-02-07T15:25:40.611Z,93.30
2019-02-07T15:28:09.733Z,93.40
2019-02-07T15:30:38.853Z,93.50
2019-02-07T15:33:08.015Z,93.30
2019-02-07T15:35:43.633Z,93.40
2019-02-07T15:38:13.241Z,93.70
2019-02-07T15:40:42.341Z,94.10
2019-02-07T15:43:11.457Z,93.90
2019-02-07T15:45:40.587Z,93.80
2019-02-07T15:48:09.693Z,93.80
2019-02-07T15:50:39.481Z,93.90
2019-02-07T15:53:11.144Z,93.80
2019-02-07T15:55:40.264Z,93.90
2019-02-07T15:58:09.440Z,93.80
2019-02-07T16:00:43.111Z,93.90
2019-02-07T16:03:26.590Z,94.00
2019-02-07T16:05:55.093Z,94.30
2019-02-07T16:08:24.505Z,94.40
2019-02-07T16:10:53.648Z,94.20
2019-02-07T16:13:23.160Z,94.20
2019-02-07T16:15:53.016Z,94.30
2019-02-07T16:18:22.125Z,94.40
2019-02-07T16:20:51.233Z,94.40
2019-02-07T16:23:20.336Z,94.40
2019-02-07T16:25:49.460Z,94.60
2019-02-07T16:28:20.401Z,94.80
2019-02-07T16:30:49.928Z,94.60
2019-02-07T16:33:19.036Z,94.90
2019-02-07T16:35:48.150Z,95.00
2019-02-07T16:38:17.245Z,95.10
2019-02-07T16:40:46.360Z,95.10
2019-02-07T16:43:15.461Z,95.20
2019-02-07T16:45:45.249Z,95.40
2019-02-07T16:48:14.357Z,95.30
2019-02-07T16:50:43.843Z,95.20
2019-02-07T16:53:12.944Z,95.20
2019-02-07T16:55:42.051Z,95.30
2019-02-07T16:58:11.156Z,95.40
2019-02-07T17:00:41.055Z,95.40
2019-02-07T17:03:10.230Z,95.00
2019-02-07T17:05:39.419Z,95.40
2019-02-07T17:08:08.636Z,95.40
2019-02-07T17:10:39.528Z,95.40
2019-02-07T17:13:13.341Z,95.60
2019-02-07T17:15:42.497Z,95.60
2019-02-07T17:18:11.880Z,95.60
2019-02-07T17:20:41.069Z,95.70
2019-02-07T17:23:10.175Z,95.60
2019-02-07T17:25:39.316Z,95.60
2019-02-07T17:28:08.436Z,95.60
2019-02-07T17:30:37.547Z,95.70
2019-02-07T17:33:06.958Z,95.80
2019-02-07T17:35:36.069Z,95.80
2019-02-07T17:38:05.192Z,95.80
2019-02-07T17:40:34.292Z,95.90
2019-02-07T17:43:03.400Z,96.00
2019-02-07T17:45:33.155Z,96.00
2019-02-07T17:48:02.290Z,96.00
2019-02-07T17:50:34.322Z,96.00
2019-02-07T17:53:08.671Z,96.10
2019-02-07T17:55:38.046Z,96.10
2019-02-07T17:58:07.912Z,96.10
2019-02-07T18:00:47.219Z,96.10
2019-02-07T18:03:16.333Z,96.10
2019-02-07T18:05:45.701Z,96.10
2019-02-07T18:08:15.243Z,96.10
2019-02-07T18:10:44.349Z,96.10
2019-02-07T18:13:26.138Z,96.00
2019-02-07T18:15:57.369Z,96.00
2019-02-07T18:18:26.067Z,95.90
2019-02-07T18:20:55.168Z,95.90
2019-02-07T18:23:24.310Z,95.90
2019-02-07T18:25:53.408Z,95.90
2019-02-07T18:28:22.532Z,95.90
2019-02-07T18:30:51.641Z,95.70
2019-02-07T18:33:20.949Z,95.70
2019-02-07T18:35:50.154Z,95.60
2019-02-07T18:38:19.273Z,95.60
2019-02-07T18:40:48.451Z,95.60
2019-02-07T18:43:17.561Z,95.60
2019-02-07T18:45:46.716Z,95.60
2019-02-07T18:48:15.849Z,95.50
2019-02-07T18:50:45.025Z,95.50
2019-02-07T18:53:14.524Z,95.60
2019-02-07T18:55:44.004Z,95.50
2019-02-07T18:58:13.129Z,95.50
2019-02-07T19:00:42.329Z,95.40
2019-02-07T19:03:13.540Z,95.30
2019-02-07T19:05:42.673Z,95.20
2019-02-07T19:08:11.808Z,95.20
2019-02-07T19:10:41.388Z,95.20
2019-02-07T19:13:10.561Z,95.20
2019-02-07T19:15:48.757Z,95.30
2019-02-07T19:18:17.876Z,95.50
2019-02-07T19:20:46.989Z,95.50
2019-02-07T19:23:16.169Z,96.00
2019-02-07T19:25:45.465Z,95.80
2019-02-07T19:28:14.649Z,95.80
2019-02-07T19:30:43.908Z,95.70
2019-02-07T19:33:13.052Z,95.80
2019-02-07T19:35:42.162Z,95.70
2019-02-07T19:38:11.332Z,95.40
2019-02-07T19:40:40.766Z,95.20
2019-02-07T19:43:09.869Z,95.00
2019-02-07T19:45:39.041Z,94.90
2019-02-07T19:48:08.145Z,94.90
2019-02-07T19:50:37.264Z,94.60
2019-02-07T19:53:06.453Z,94.60
2019-02-07T19:55:37.024Z,94.50
2019-02-07T19:58:07.781Z,94.60
2019-02-07T20:00:39.374Z,94.70
2019-02-07T20:03:07.781Z,94.70
2019-02-07T20:05:36.940Z,94.70
2019-02-07T20:08:06.713Z,94.60
2019-02-07T20:10:36.177Z,94.60
2019-02-07T20:13:05.273Z,94.70
2019-02-07T20:15:39.740Z,94.70
2019-02-07T20:18:10.610Z,94.90
2019-02-07T20:20:40.448Z,94.80
2019-02-07T20:23:09.621Z,95.10
2019-02-07T20:25:39.237Z,94.60
2019-02-07T20:28:08.347Z,94.70
2019-02-07T20:30:42.726Z,94.50
2019-02-07T20:33:11.947Z,94.50
2019-02-07T20:35:41.075Z,94.70
2019-02-07T20:38:10.847Z,94.70
2019-02-07T20:40:40.058Z,94.70
2019-02-07T20:43:09.333Z,94.80
2019-02-07T20:45:38.530Z,94.90
2019-02-07T20:48:08.100Z,94.70
2019-02-07T20:50:37.200Z,94.80
2019-02-07T20:53:06.588Z,94.90
2019-02-07T20:55:36.656Z,94.90
2019-02-07T20:58:06.152Z,95.00
2019-02-07T21:00:37.876Z,94.90
2019-02-07T21:03:07.073Z,94.90
2019-02-07T21:05:36.883Z,94.90
2019-02-07T21:08:06.186Z,94.90
2019-02-07T21:10:38.321Z,94.90
2019-02-07T21:13:08.040Z,95.00
2019-02-07T21:15:37.179Z,95.00
2019-02-07T21:18:06.782Z,95.00
2019-02-07T21:20:37.310Z,95.10
2019-02-07T21:23:06.584Z,95.40
2019-02-07T21:25:41.903Z,95.40
2019-02-07T21:28:11.375Z,95.50
2019-02-07T21:30:40.474Z,95.50
2019-02-07T21:33:09.601Z,95.60
2019-02-07T21:35:38.721Z,95.60
2019-02-07T21:38:07.846Z,95.50
2019-02-07T21:40:37.084Z,95.60
2019-02-07T21:43:06.299Z,95.90
2019-02-07T21:45:35.865Z,95.40
2019-02-07T21:48:07.125Z,95.30
2019-02-07T21:50:36.285Z,95.30
2019-02-07T21:53:05.957Z,95.50
2019-02-07T21:55:36.861Z,95.50
2019-02-07T21:58:07.820Z,95.40
2019-02-07T22:00:59.369Z,95.20
2019-02-07T22:03:30.084Z,95.20
2019-02-07T22:05:59.453Z,95.20
2019-02-07T22:08:28.701Z,95.20
2019-02-07T22:10:58.429Z,95.30
2019-02-07T22:13:27.538Z,95.30
2019-02-07T22:15:57.626Z,95.30
2019-02-07T22:18:26.765Z,95.50
2019-02-07T22:20:55.857Z,95.60
2019-02-07T22:23:25.005Z,95.70
2019-02-07T22:25:54.724Z,95.40
2019-02-07T22:28:23.832Z,95.30
2019-02-07T22:30:52.954Z,95.60
2019-02-07T22:33:22.061Z,95.20
2019-02-07T22:35:51.172Z,95.20
2019-02-07T22:38:20.648Z,95.30
2019-02-07T22:40:50.252Z,95.40
2019-02-07T22:43:19.445Z,95.40
2019-02-07T22:45:48.620Z,95.60
2019-02-07T22:48:18.009Z,95.40
2019-02-07T22:50:47.133Z,95.20
2019-02-07T22:53:16.245Z,95.10
2019-02-07T22:55:45.836Z,95.00
2019-02-07T22:58:15.366Z,94.90
2019-02-07T23:01:02.922Z,94.90
2019-02-07T23:03:32.020Z,94.80
2019-02-07T23:06:13.987Z,94.80
2019-02-07T23:08:43.454Z,94.70
2019-02-07T23:11:12.576Z,94.70
2019-02-07T23:13:41.800Z,94.60
2019-02-07T23:16:10.937Z,94.60
2019-02-07T23:18:40.962Z,94.30
2019-02-07T23:21:11.122Z,94.30
2019-02-07T23:23:40.582Z,94.40
2019-02-07T23:26:10.100Z,94.20
2019-02-07T23:28:39.483Z,94.20
2019-02-07T23:31:20.908Z,94.20
2019-02-07T23:33:52.768Z,94.30
2019-02-07T23:36:21.929Z,94.30
2019-02-07T23:38:51.056Z,94.30
2019-02-07T23:41:21.225Z,94.40
2019-02-07T23:43:50.394Z,94.10
2019-02-07T23:46:19.836Z,93.90
2019-02-07T23:48:49.312Z,94.00
2019-02-07T23:51:18.811Z,93.90
2019-02-07T23:53:48.253Z,94.10
2019-02-07T23:56:17.389Z,94.30
2019-02-07T23:58:46.522Z,94.50
